Time;durP1;ratioP1;P1;durP2;ratioP2;P2;SDS_P1;SDS_P2;PMS_P1;PMS_P2;Temp;Humidity;BMP_temperature;BMP_pressure;BME280_temperature;BME280_humidity;BME280_pressure;Samples;Min_cycle;Max_cycle;Signal;HPM_P1;HPM_P2
2021/05/22 00:01:19;;;;;;;5.33;1.23;;;12.20;99.90;;;;;;5041293;28;20206;-72
2021/05/22 00:03:46;;;;;;;5.77;1.27;;;12.30;99.90;;;;;;5033753;28;20249;-72
2021/05/22 00:06:12;;;;;;;5.23;1.40;;;12.30;99.90;;;;;;5032375;28;20207;-72
2021/05/22 00:08:38;;;;;;;4.83;1.03;;;12.30;99.90;;;;;;5038983;28;20294;-72
2021/05/22 00:11:06;;;;;;;3.03;1.10;;;12.30;99.90;;;;;;5044310;28;20245;-72
2021/05/22 00:13:32;;;;;;;3.53;1.30;;;12.20;99.90;;;;;;5032926;28;20207;-72
2021/05/22 00:15:58;;;;;;;3.93;1.10;;;12.30;99.90;;;;;;5034404;28;20207;-72
2021/05/22 00:18:25;;;;;;;5.93;1.30;;;12.30;99.90;;;;;;5033007;28;20206;-73
2021/05/22 00:20:51;;;;;;;3.93;1.23;;;12.30;99.90;;;;;;5044880;28;20203;-72
2021/05/22 00:23:17;;;;;;;3.23;0.90;;;12.20;99.90;;;;;;5034673;28;20210;-72
2021/05/22 00:25:44;;;;;;;1.97;0.90;;;12.20;99.90;;;;;;5041781;28;20665;-72
2021/05/22 00:28:11;;;;;;;3.13;1.37;;;12.30;99.90;;;;;;5042197;28;20208;-72
2021/05/22 00:30:37;;;;;;;2.97;1.20;;;12.30;99.90;;;;;;5032069;28;20208;-72
2021/05/22 00:33:04;;;;;;;4.97;1.20;;;12.30;99.90;;;;;;5035668;28;20289;-72
2021/05/22 00:35:30;;;;;;;4.13;1.30;;;12.40;99.90;;;;;;5038635;28;20669;-72
2021/05/22 00:37:57;;;;;;;3.13;1.03;;;12.40;99.90;;;;;;5033340;28;20211;-72
2021/05/22 00:40:23;;;;;;;6.07;1.60;;;12.10;99.90;;;;;;5036492;28;20650;-72
2021/05/22 00:42:50;;;;;;;3.80;1.37;;;12.10;99.90;;;;;;5039584;28;20200;-72
2021/05/22 00:45:19;;;;;;;4.50;1.50;;;12.10;99.90;;;;;;5032795;28;20321;-70
2021/05/22 00:47:47;;;;;;;2.70;1.00;;;12.20;99.90;;;;;;5032329;28;20226;-71
2021/05/22 00:50:17;;;;;;;3.63;1.30;;;12.10;99.90;;;;;;5034417;28;20250;-71
2021/05/22 00:52:44;;;;;;;2.27;1.20;;;12.10;99.90;;;;;;5042862;28;20202;-71
2021/05/22 00:55:11;;;;;;;4.63;1.20;;;12.20;99.90;;;;;;5031473;28;20537;-71
2021/05/22 00:57:40;;;;;;;4.30;1.20;;;12.20;99.90;;;;;;5046904;28;20203;-71
2021/05/22 01:00:08;;;;;;;4.40;1.73;;;12.10;99.90;;;;;;5035373;28;20207;-71
2021/05/22 01:02:36;;;;;;;3.90;1.30;;;12.10;99.90;;;;;;5031879;28;20208;-71
2021/05/22 01:05:04;;;;;;;4.17;1.30;;;12.10;99.90;;;;;;5040290;28;20617;-71
2021/05/22 01:07:30;;;;;;;5.67;1.67;;;12.10;99.90;;;;;;5035855;28;20205;-71
2021/05/22 01:09:57;;;;;;;2.97;1.00;;;12.10;99.90;;;;;;5043267;28;20294;-71
2021/05/22 01:12:28;;;;;;;4.33;1.27;;;12.00;99.90;;;;;;5038112;28;20541;-70
2021/05/22 01:15:02;;;;;;;3.50;1.30;;;11.70;99.90;;;;;;5041139;28;20205;-71
2021/05/22 01:17:28;;;;;;;2.10;1.30;;;11.70;99.90;;;;;;5039111;28;20214;-71
2021/05/22 01:20:07;;;;;;;6.83;1.00;;;11.50;99.90;;;;;;5031782;28;20204;-71
2021/05/22 01:22:38;;;;;;;2.83;1.33;;;11.40;99.90;;;;;;5036993;28;20206;-71
2021/05/22 01:25:08;;;;;;;2.97;1.27;;;11.50;99.90;;;;;;5036196;28;20220;-71
2021/05/22 01:27:36;;;;;;;3.30;1.10;;;11.20;99.90;;;;;;5031640;28;20200;-71
2021/05/22 01:30:05;;;;;;;5.47;2.00;;;11.20;99.90;;;;;;5039770;28;20214;-71
2021/05/22 01:32:33;;;;;;;1.97;1.43;;;11.10;99.90;;;;;;5039752;28;20591;-70
2021/05/22 01:35:00;;;;;;;3.90;1.30;;;11.10;99.90;;;;;;5033524;28;20257;-71
2021/05/22 01:37:27;;;;;;;4.17;1.10;;;11.10;99.90;;;;;;5031000;28;20187;-71
2021/05/22 01:39:53;;;;;;;3.47;1.10;;;11.20;99.90;;;;;;5031341;28;20211;-71
2021/05/22 01:42:19;;;;;;;2.90;0.97;;;11.30;99.90;;;;;;5031540;28;20665;-71
2021/05/22 01:44:51;;;;;;;1.30;1.10;;;11.20;99.90;;;;;;5031953;28;20540;-71
2021/05/22 01:47:21;;;;;;;5.80;1.10;;;11.30;99.90;;;;;;5035375;28;20236;-71
2021/05/22 01:49:48;;;;;;;3.17;0.97;;;11.20;99.90;;;;;;5049477;28;20679;-71
2021/05/22 01:52:18;;;;;;;4.20;1.03;;;11.10;99.90;;;;;;5051378;28;20207;-71
2021/05/22 01:54:47;;;;;;;4.53;1.30;;;11.00;99.90;;;;;;5012111;28;20207;-71
2021/05/22 01:57:13;;;;;;;5.50;1.90;;;11.00;99.90;;;;;;5011981;28;20204;-71
2021/05/22 01:59:39;;;;;;;2.73;1.37;;;11.00;99.90;;;;;;5030915;28;20200;-71
2021/05/22 02:02:07;;;;;;;0.93;0.83;;;10.90;99.90;;;;;;5025093;28;20208;-71
2021/05/22 02:04:36;;;;;;;4.27;1.13;;;10.80;99.90;;;;;;5027137;28;20219;-71
2021/05/22 02:07:03;;;;;;;4.23;1.37;;;10.80;99.90;;;;;;5030945;28;20233;-71
2021/05/22 02:09:31;;;;;;;3.10;0.80;;;10.70;99.90;;;;;;5030683;28;20196;-71
2021/05/22 02:11:58;;;;;;;2.53;1.30;;;10.60;99.90;;;;;;5030469;28;20196;-71
2021/05/22 02:14:30;;;;;;;2.33;0.77;;;10.50;99.90;;;;;;5029135;28;20203;-70
2021/05/22 02:16:57;;;;;;;3.20;0.87;;;10.60;99.90;;;;;;5024741;28;20744;-71
2021/05/22 02:19:27;;;;;;;0.60;0.60;;;10.60;99.90;;;;;;5029075;28;20820;-70
2021/05/22 02:21:55;;;;;;;3.37;0.77;;;10.70;99.90;;;;;;5030062;28;20694;-70
2021/05/22 02:24:25;;;;;;;4.43;0.90;;;10.50;99.90;;;;;;5019965;28;20222;-71
2021/05/22 02:26:55;;;;;;;2.17;0.83;;;10.60;99.90;;;;;;5046606;28;20200;-71
2021/05/22 02:29:24;;;;;;;1.90;0.80;;;10.70;99.90;;;;;;5030102;28;20215;-70
2021/05/22 02:31:51;;;;;;;2.53;0.70;;;10.80;99.90;;;;;;5033257;28;20208;-71
2021/05/22 02:34:32;;;;;;;2.87;1.00;;;10.80;99.90;;;;;;5034293;28;20223;-71
2021/05/22 02:37:01;;;;;;;1.47;0.90;;;10.70;99.90;;;;;;5036933;28;20206;-71
2021/05/22 02:39:28;;;;;;;1.57;0.83;;;10.70;99.90;;;;;;5034477;28;20211;-70
2021/05/22 02:41:58;;;;;;;3.23;1.33;;;10.80;99.90;;;;;;5039666;28;20257;-71
2021/05/22 02:44:27;;;;;;;1.70;0.70;;;10.70;99.90;;;;;;5032381;28;20590;-70
2021/05/22 02:46:55;;;;;;;1.57;0.53;;;10.70;99.90;;;;;;5033799;28;20203;-71
2021/05/22 02:49:26;;;;;;;2.73;0.93;;;10.60;99.90;;;;;;5037264;28;20210;-71
2021/05/22 02:51:55;;;;;;;1.87;0.90;;;10.50;99.90;;;;;;5034025;28;20203;-71
2021/05/22 02:54:24;;;;;;;3.17;0.90;;;10.50;99.90;;;;;;5033300;28;20208;-71
2021/05/22 02:56:53;;;;;;;2.47;0.90;;;10.50;99.90;;;;;;5041078;28;20580;-71
2021/05/22 02:59:21;;;;;;;2.77;0.80;;;10.40;99.90;;;;;;5033407;28;20199;-71
2021/05/22 03:01:48;;;;;;;2.80;0.90;;;10.50;99.90;;;;;;5034943;28;20211;-71
2021/05/22 03:04:15;;;;;;;2.27;1.00;;;10.40;99.90;;;;;;5029853;28;20204;-71
2021/05/22 03:06:42;;;;;;;1.37;0.97;;;10.40;99.90;;;;;;5042747;28;20585;-71
2021/05/22 03:09:08;;;;;;;1.40;0.80;;;10.40;99.90;;;;;;5052313;28;20267;-71
2021/05/22 03:11:35;;;;;;;2.10;0.73;;;10.40;99.90;;;;;;5053772;28;20692;-71
2021/05/22 03:14:02;;;;;;;2.03;1.10;;;10.30;99.90;;;;;;5040930;28;20579;-70
2021/05/22 03:16:28;;;;;;;2.73;0.70;;;10.30;99.90;;;;;;5033999;28;20219;-70
2021/05/22 03:18:54;;;;;;;2.47;0.90;;;10.30;99.90;;;;;;5033969;28;20298;-70
2021/05/22 03:21:21;;;;;;;1.80;0.80;;;10.20;99.90;;;;;;5033916;28;20203;-70
2021/05/22 03:23:47;;;;;;;1.43;0.67;;;10.20;99.90;;;;;;5034012;28;20204;-71
2021/05/22 03:26:13;;;;;;;2.40;0.87;;;10.30;99.90;;;;;;5033687;28;20262;-70
2021/05/22 03:28:40;;;;;;;3.73;1.20;;;10.30;99.90;;;;;;5033687;28;20605;-71
2021/05/22 03:31:07;;;;;;;2.10;0.87;;;10.30;99.90;;;;;;5033593;28;20616;-71
2021/05/22 03:33:33;;;;;;;2.03;1.17;;;10.30;99.90;;;;;;5033747;28;20200;-71
2021/05/22 03:35:59;;;;;;;4.10;1.73;;;10.20;99.90;;;;;;5033794;28;20199;-71
2021/05/22 03:38:26;;;;;;;3.03;0.90;;;10.30;99.90;;;;;;5033725;28;20643;-70
2021/05/22 03:40:52;;;;;;;4.80;0.90;;;10.20;99.90;;;;;;5033147;28;20207;-70
2021/05/22 03:43:18;;;;;;;5.37;1.30;;;10.20;99.90;;;;;;5033281;28;20196;-70
2021/05/22 03:45:45;;;;;;;2.53;0.70;;;10.20;99.90;;;;;;5033824;28;20279;-71
2021/05/22 03:48:12;;;;;;;2.40;1.13;;;10.20;99.90;;;;;;5033466;28;20246;-71
2021/05/22 03:50:38;;;;;;;2.13;1.33;;;10.20;99.90;;;;;;5033283;28;20654;-71
2021/05/22 03:53:08;;;;;;;1.03;0.67;;;10.20;99.90;;;;;;5036646;28;20554;-71
2021/05/22 03:55:35;;;;;;;3.63;1.00;;;10.20;99.90;;;;;;5027097;28;20196;-71
2021/05/22 03:58:01;;;;;;;3.87;0.90;;;10.20;99.90;;;;;;5032890;28;20242;-71
2021/05/22 04:00:28;;;;;;;3.50;1.17;;;10.20;99.90;;;;;;5031084;28;20208;-71
2021/05/22 04:02:55;;;;;;;5.77;1.13;;;10.30;99.90;;;;;;5030477;28;20569;-71
2021/05/22 04:05:21;;;;;;;3.10;0.83;;;10.30;99.90;;;;;;5031675;28;20747;-71
2021/05/22 04:07:47;;;;;;;4.40;1.23;;;10.30;99.90;;;;;;5032205;28;20747;-70
2021/05/22 04:10:14;;;;;;;3.37;1.10;;;10.40;99.90;;;;;;5032373;28;20212;-70
2021/05/22 04:12:40;;;;;;;1.10;0.60;;;10.60;99.90;;;;;;5032348;28;20203;-71
2021/05/22 04:15:07;;;;;;;3.57;0.90;;;10.40;99.90;;;;;;5032549;28;20287;-70
2021/05/22 04:17:33;;;;;;;4.73;1.23;;;10.30;99.90;;;;;;5031956;28;20212;-71
2021/05/22 04:20:01;;;;;;;3.10;0.90;;;10.40;99.90;;;;;;5032478;28;20196;-71
2021/05/22 04:22:27;;;;;;;5.97;1.30;;;10.40;99.90;;;;;;5036945;28;20205;-70
2021/05/22 04:24:53;;;;;;;5.57;1.27;;;10.40;99.90;;;;;;5031982;28;20269;-71
2021/05/22 04:27:20;;;;;;;6.27;1.43;;;10.50;99.90;;;;;;5031895;28;20222;-71
2021/05/22 04:29:46;;;;;;;4.30;1.60;;;10.60;99.90;;;;;;5032144;28;20203;-71
2021/05/22 04:32:12;;;;;;;5.07;1.13;;;11.00;99.90;;;;;;5024348;28;20203;-71
2021/05/22 04:34:39;;;;;;;1.23;0.70;;;11.40;99.90;;;;;;5032051;28;20200;-71
2021/05/22 04:37:06;;;;;;;1.90;0.77;;;11.30;99.90;;;;;;5034855;28;20209;-71
2021/05/22 04:39:32;;;;;;;4.10;0.90;;;11.60;99.90;;;;;;5036502;28;20256;-71
2021/05/22 04:41:59;;;;;;;3.27;0.80;;;11.80;99.90;;;;;;5032848;28;20211;-70
2021/05/22 04:44:25;;;;;;;3.17;0.90;;;11.60;99.90;;;;;;5044611;28;20210;-71
2021/05/22 04:46:51;;;;;;;2.23;0.97;;;12.10;99.90;;;;;;5042811;28;20203;-71
2021/05/22 04:49:17;;;;;;;2.10;0.70;;;11.60;99.90;;;;;;5038433;28;20297;-71
2021/05/22 04:51:45;;;;;;;1.50;1.03;;;11.40;99.90;;;;;;5038375;28;20499;-71
2021/05/22 04:54:13;;;;;;;2.40;1.00;;;11.20;99.90;;;;;;5031527;28;20675;-70
2021/05/22 04:56:39;;;;;;;2.70;1.00;;;11.20;99.90;;;;;;5032745;28;20286;-71
2021/05/22 04:59:06;;;;;;;3.37;1.47;;;11.20;99.90;;;;;;5032169;28;20203;-71
2021/05/22 05:01:32;;;;;;;2.70;0.97;;;11.20;99.90;;;;;;5032399;28;20721;-71
2021/05/22 05:03:59;;;;;;;3.73;1.40;;;11.20;99.90;;;;;;5031951;28;20206;-71
2021/05/22 05:06:26;;;;;;;6.90;3.53;;;11.10;99.90;;;;;;5032254;28;20263;-70
2021/05/22 05:08:53;;;;;;;3.50;1.33;;;11.30;99.90;;;;;;5025096;28;20202;-70
2021/05/22 05:11:20;;;;;;;4.00;1.20;;;11.30;99.90;;;;;;5032375;28;20213;-70
2021/05/22 05:13:47;;;;;;;2.23;1.00;;;11.40;99.90;;;;;;5018922;28;20208;-71
2021/05/22 05:16:14;;;;;;;3.53;1.43;;;11.80;99.90;;;;;;5012456;28;20351;-71
2021/05/22 05:18:41;;;;;;;4.27;1.00;;;12.00;99.90;;;;;;5020130;28;20254;-71
2021/05/22 05:21:07;;;;;;;4.53;1.20;;;11.80;99.90;;;;;;5031988;28;20608;-70
2021/05/22 05:23:35;;;;;;;2.20;1.27;;;11.80;99.90;;;;;;5027768;28;20192;-71
2021/05/22 05:26:01;;;;;;;3.10;0.60;;;12.20;99.90;;;;;;5012231;28;20275;-71
2021/05/22 05:28:28;;;;;;;3.63;1.23;;;12.80;99.90;;;;;;5020657;28;20215;-71
2021/05/22 05:30:55;;;;;;;5.53;1.17;;;12.10;99.90;;;;;;5032137;28;20699;-71
2021/05/22 05:33:21;;;;;;;6.77;1.40;;;12.10;99.90;;;;;;5020913;28;20204;-70
2021/05/22 05:35:49;;;;;;;2.50;1.43;;;12.20;99.90;;;;;;5014272;28;20657;-70
2021/05/22 05:38:15;;;;;;;3.70;0.90;;;13.80;99.90;;;;;;5031533;28;20208;-71
2021/05/22 05:40:41;;;;;;;3.70;1.03;;;14.80;99.90;;;;;;5030477;28;20208;-71
2021/05/22 05:43:10;;;;;;;4.37;1.10;;;13.70;99.90;;;;;;5023134;28;20225;-71
2021/05/22 05:45:37;;;;;;;3.50;0.93;;;14.50;99.90;;;;;;5031875;28;20238;-71
2021/05/22 05:48:05;;;;;;;4.07;1.27;;;15.00;99.90;;;;;;5031364;28;20196;-71
2021/05/22 05:50:32;;;;;;;4.40;1.63;;;13.50;99.90;;;;;;5031611;28;20331;-71
2021/05/22 05:52:58;;;;;;;6.30;2.50;;;13.20;99.90;;;;;;5039174;28;20203;-71
2021/05/22 05:55:24;;;;;;;2.63;0.90;;;12.80;99.90;;;;;;5031225;28;20200;-71
2021/05/22 05:57:51;;;;;;;5.30;1.20;;;12.60;99.90;;;;;;5030815;28;20661;-71
2021/05/22 06:00:18;;;;;;;1.97;0.90;;;12.80;99.90;;;;;;5031605;28;20298;-71
2021/05/22 06:02:46;;;;;;;2.50;1.47;;;12.70;99.90;;;;;;5031371;28;20203;-71
2021/05/22 06:05:12;;;;;;;5.07;1.60;;;12.70;99.90;;;;;;5033265;28;20223;-71
2021/05/22 06:07:39;;;;;;;4.97;2.17;;;12.70;99.90;;;;;;5035267;28;20646;-71
2021/05/22 06:10:06;;;;;;;6.73;1.20;;;13.10;99.90;;;;;;5035027;28;20198;-71
2021/05/22 06:12:33;;;;;;;2.20;1.20;;;12.80;99.90;;;;;;5035309;28;20207;-71
2021/05/22 06:15:08;;;;;;;6.67;1.20;;;12.90;99.90;;;;;;5034999;28;20606;-71
2021/05/22 06:17:35;;;;;;;3.80;1.10;;;13.00;99.90;;;;;;5034949;28;20645;-71
2021/05/22 06:20:02;;;;;;;6.27;1.57;;;13.20;99.90;;;;;;5035344;28;20257;-71
2021/05/22 06:22:28;;;;;;;5.10;0.90;;;13.20;99.90;;;;;;5035181;28;20207;-72
2021/05/22 06:24:54;;;;;;;4.27;1.30;;;12.90;99.90;;;;;;5035163;28;20327;-72
2021/05/22 06:27:21;;;;;;;5.23;1.83;;;13.10;99.90;;;;;;5034657;28;20202;-72
2021/05/22 06:29:47;;;;;;;5.57;1.13;;;13.10;99.90;;;;;;5034975;28;20217;-72
2021/05/22 06:32:14;;;;;;;6.70;1.10;;;13.20;99.90;;;;;;5034593;28;20575;-72
2021/05/22 06:34:40;;;;;;;5.80;1.20;;;13.30;99.90;;;;;;5034907;28;20206;-72
2021/05/22 06:37:07;;;;;;;4.97;1.47;;;13.40;99.90;;;;;;5034805;28;20203;-72
2021/05/22 06:39:33;;;;;;;5.03;1.13;;;13.60;99.90;;;;;;5034794;28;20200;-72
2021/05/22 06:42:00;;;;;;;4.20;1.20;;;13.50;99.90;;;;;;5034642;28;20276;-72
2021/05/22 06:44:31;;;;;;;3.23;1.10;;;13.50;99.90;;;;;;5034753;28;20206;-72
2021/05/22 06:46:58;;;;;;;1.97;1.17;;;13.60;99.90;;;;;;5034619;28;20303;-72
2021/05/22 06:49:24;;;;;;;5.13;1.60;;;13.60;99.90;;;;;;5033450;28;20238;-72
2021/05/22 06:51:51;;;;;;;3.53;1.07;;;13.40;99.90;;;;;;5034016;28;20282;-72
2021/05/22 06:54:18;;;;;;;2.87;1.07;;;13.60;99.90;;;;;;5034332;28;20633;-72
2021/05/22 06:56:44;;;;;;;3.90;1.03;;;13.60;99.90;;;;;;5033172;28;20673;-72
2021/05/22 06:59:10;;;;;;;5.37;1.33;;;13.60;99.90;;;;;;5033645;28;20200;-72
2021/05/22 07:01:37;;;;;;;4.00;1.07;;;13.70;99.90;;;;;;5033693;28;20200;-72
2021/05/22 07:04:04;;;;;;;3.00;1.30;;;13.80;99.90;;;;;;5030686;28;20196;-72
2021/05/22 07:06:30;;;;;;;2.87;1.10;;;13.80;99.90;;;;;;5032564;28;20746;-71
2021/05/22 07:08:56;;;;;;;3.30;1.10;;;13.70;99.90;;;;;;5033208;28;20199;-72
2021/05/22 07:11:24;;;;;;;8.13;1.27;;;13.80;99.90;;;;;;5033233;28;20294;-72
2021/05/22 07:13:51;;;;;;;3.30;1.10;;;13.70;99.90;;;;;;5033598;28;20214;-72
2021/05/22 07:16:18;;;;;;;4.30;0.80;;;13.70;99.90;;;;;;5034347;28;20586;-72
2021/05/22 07:18:44;;;;;;;3.63;1.10;;;13.60;99.90;;;;;;5052267;28;20205;-72
2021/05/22 07:21:11;;;;;;;5.13;0.97;;;13.60;99.90;;;;;;5035261;28;20206;-72
2021/05/22 07:23:37;;;;;;;4.37;1.00;;;13.60;99.90;;;;;;5033936;28;20203;-72
2021/05/22 07:26:04;;;;;;;4.70;1.30;;;13.60;99.90;;;;;;5033640;28;20269;-72
2021/05/22 07:28:32;;;;;;;6.10;2.47;;;13.30;99.90;;;;;;5033911;28;20203;-72
2021/05/22 07:31:00;;;;;;;4.37;1.40;;;13.30;99.90;;;;;;5032659;28;20212;-72
2021/05/22 07:33:27;;;;;;;6.27;1.50;;;13.20;99.90;;;;;;5034162;28;20250;-72
2021/05/22 07:35:54;;;;;;;3.13;1.30;;;13.20;99.90;;;;;;5033210;28;20196;-72
2021/05/22 07:38:20;;;;;;;4.60;1.47;;;13.40;99.90;;;;;;5033673;28;20200;-72
2021/05/22 07:40:47;;;;;;;6.23;1.30;;;13.40;99.90;;;;;;5033415;28;20666;-72
2021/05/22 07:43:14;;;;;;;4.27;1.50;;;13.50;99.90;;;;;;5033771;28;20214;-72
2021/05/22 07:45:41;;;;;;;3.33;1.10;;;13.40;99.90;;;;;;5033709;28;20590;-72
2021/05/22 07:48:08;;;;;;;3.63;1.03;;;13.30;99.90;;;;;;5033621;28;20290;-72
2021/05/22 07:50:35;;;;;;;6.03;1.30;;;13.30;99.90;;;;;;5033485;28;20206;-72
2021/05/22 07:53:03;;;;;;;2.70;0.93;;;13.60;99.90;;;;;;5046089;28;20240;-72
2021/05/22 07:55:30;;;;;;;4.57;0.87;;;13.70;99.90;;;;;;5033434;28;20235;-73
2021/05/22 07:57:56;;;;;;;4.23;1.50;;;13.60;99.90;;;;;;5040337;28;20199;-72
2021/05/22 08:00:23;;;;;;;1.37;0.80;;;14.00;99.90;;;;;;5038379;28;20195;-72
2021/05/22 08:02:51;;;;;;;2.87;1.03;;;14.10;99.90;;;;;;5033099;28;20563;-73
2021/05/22 08:05:17;;;;;;;5.60;1.27;;;13.90;99.90;;;;;;5033300;28;20226;-72
2021/05/22 08:07:44;;;;;;;1.93;0.90;;;13.80;99.90;;;;;;5033136;28;20204;-73
2021/05/22 08:10:12;;;;;;;6.50;1.37;;;14.10;99.90;;;;;;5032967;28;20640;-73
2021/05/22 08:12:38;;;;;;;4.50;1.10;;;14.40;99.90;;;;;;5032911;28;20302;-72
2021/05/22 08:15:07;;;;;;;3.30;1.00;;;14.60;99.90;;;;;;5032790;28;20209;-73
2021/05/22 08:17:33;;;;;;;1.67;0.70;;;15.00;99.90;;;;;;5031873;28;20211;-72
2021/05/22 08:20:00;;;;;;;3.50;1.43;;;15.00;99.90;;;;;;5032675;28;20206;-72
2021/05/22 08:22:28;;;;;;;4.63;0.90;;;15.40;99.90;;;;;;5033078;28;20684;-73
2021/05/22 08:24:54;;;;;;;5.70;1.40;;;15.30;99.90;;;;;;5032703;28;20576;-73
2021/05/22 08:27:21;;;;;;;3.17;1.10;;;14.90;99.90;;;;;;5032999;28;20204;-73
2021/05/22 08:29:48;;;;;;;2.83;0.77;;;15.00;99.90;;;;;;5032946;28;20188;-73
2021/05/22 08:32:14;;;;;;;3.43;1.20;;;14.90;99.90;;;;;;5032820;28;20204;-72
2021/05/22 08:34:40;;;;;;;6.27;1.53;;;14.90;99.90;;;;;;5032565;28;20286;-73
2021/05/22 08:37:08;;;;;;;3.57;1.00;;;14.70;99.90;;;;;;5032497;28;20203;-73
2021/05/22 08:39:35;;;;;;;3.37;0.90;;;14.70;99.90;;;;;;5032026;28;20196;-73
2021/05/22 08:42:03;;;;;;;4.87;0.80;;;14.60;99.90;;;;;;5032324;28;20199;-73
2021/05/22 08:44:29;;;;;;;2.10;1.37;;;14.50;99.90;;;;;;5029680;28;20646;-72
2021/05/22 08:46:56;;;;;;;5.10;1.33;;;14.70;99.90;;;;;;5022183;28;20497;-73
2021/05/22 08:49:22;;;;;;;3.13;0.83;;;14.60;99.90;;;;;;5031820;28;20207;-73
2021/05/22 08:51:48;;;;;;;3.67;1.03;;;14.70;99.90;;;;;;5031496;28;20577;-72
2021/05/22 08:54:16;;;;;;;2.93;1.13;;;14.50;99.90;;;;;;5039800;28;20202;-73
2021/05/22 08:56:42;;;;;;;1.53;0.73;;;14.10;99.90;;;;;;5030018;28;20192;-72
2021/05/22 08:59:10;;;;;;;3.80;1.20;;;14.00;99.90;;;;;;5039904;28;20211;-72
2021/05/22 09:01:37;;;;;;;3.97;1.30;;;13.60;99.90;;;;;;5031845;28;20203;-72
2021/05/22 09:04:06;;;;;;;5.13;1.60;;;13.30;99.90;;;;;;5029317;28;20200;-72
2021/05/22 09:06:32;;;;;;;3.10;1.33;;;13.10;99.90;;;;;;5030807;28;20216;-73
2021/05/22 09:09:00;;;;;;;7.17;1.37;;;12.80;99.90;;;;;;5031253;28;20196;-72
2021/05/22 09:11:27;;;;;;;6.63;1.10;;;12.50;99.90;;;;;;5030856;28;20195;-72
2021/05/22 09:13:54;;;;;;;1.87;1.03;;;12.50;99.90;;;;;;5030110;28;20206;-72
2021/05/22 09:16:21;;;;;;;1.90;0.90;;;12.40;99.90;;;;;;5031001;28;20204;-72
2021/05/22 09:18:49;;;;;;;3.53;1.10;;;12.30;99.90;;;;;;5031018;28;20200;-72
2021/05/22 09:21:16;;;;;;;2.10;0.90;;;12.10;99.90;;;;;;5030593;28;20202;-72
2021/05/22 09:23:47;;;;;;;3.00;1.13;;;12.20;99.90;;;;;;5030854;28;20666;-72
2021/05/22 09:26:15;;;;;;;2.90;0.93;;;12.20;99.90;;;;;;5030837;28;20230;-72
2021/05/22 09:28:44;;;;;;;1.53;0.80;;;12.20;99.90;;;;;;5030688;28;20244;-72
2021/05/22 09:31:12;;;;;;;2.17;0.90;;;12.30;99.90;;;;;;5030760;28;20203;-72
2021/05/22 09:33:39;;;;;;;4.70;1.20;;;12.40;99.90;;;;;;5027710;28;20207;-72
2021/05/22 09:36:08;;;;;;;2.33;0.80;;;12.80;99.90;;;;;;5031081;28;20204;-72
2021/05/22 09:38:36;;;;;;;3.40;1.20;;;13.10;99.90;;;;;;5029022;28;20696;-72
2021/05/22 09:41:17;;;;;;;3.13;0.73;;;13.40;99.90;;;;;;5034579;28;20597;-73
2021/05/22 09:44:05;;;;;;;1.50;0.67;;;13.70;99.90;;;;;;5034260;28;20214;-72
2021/05/22 09:46:31;;;;;;;2.17;0.87;;;14.50;99.90;;;;;;5034652;28;20211;-72
2021/05/22 09:49:01;;;;;;;2.90;1.20;;;14.60;99.90;;;;;;5034914;28;20214;-73
2021/05/22 09:51:28;;;;;;;1.80;0.70;;;14.60;99.90;;;;;;5034540;28;20196;-72
2021/05/22 09:53:54;;;;;;;6.00;1.13;;;14.40;99.90;;;;;;5035121;28;20199;-72
2021/05/22 09:56:22;;;;;;;1.40;0.73;;;14.10;99.90;;;;;;5034345;28;20192;-72
2021/05/22 09:58:53;;;;;;;3.47;1.13;;;13.80;99.90;;;;;;5033758;28;20290;-72
2021/05/22 10:01:21;;;;;;;4.27;0.70;;;13.60;99.90;;;;;;5037511;28;20257;-72
2021/05/22 10:03:48;;;;;;;3.53;1.30;;;13.50;99.90;;;;;;5055574;28;20245;-72
2021/05/22 10:06:15;;;;;;;4.33;1.10;;;13.70;99.90;;;;;;5042477;28;20217;-72
2021/05/22 10:08:42;;;;;;;1.33;0.90;;;13.70;99.90;;;;;;5035658;28;20662;-72
2021/05/22 10:11:08;;;;;;;1.70;0.90;;;13.70;99.90;;;;;;5035008;28;20230;-72
2021/05/22 10:13:36;;;;;;;1.50;0.80;;;13.90;99.90;;;;;;5035729;28;20588;-72
2021/05/22 10:16:06;;;;;;;5.20;1.50;;;13.50;99.90;;;;;;5035403;28;20247;-72
2021/05/22 10:18:33;;;;;;;2.83;0.70;;;13.50;99.90;;;;;;5034429;28;20287;-72
2021/05/22 10:21:01;;;;;;;2.53;0.90;;;13.50;99.90;;;;;;5028081;28;20654;-72
2021/05/22 10:23:28;;;;;;;1.87;0.80;;;13.30;99.90;;;;;;5034224;28;20668;-72
2021/05/22 10:25:55;;;;;;;2.00;0.80;;;13.20;99.90;;;;;;5034309;28;20234;-72
2021/05/22 10:28:23;;;;;;;2.67;1.33;;;13.10;99.90;;;;;;5033733;28;20204;-72
2021/05/22 10:30:50;;;;;;;2.10;0.80;;;13.10;99.90;;;;;;5034853;28;20200;-72
2021/05/22 10:33:18;;;;;;;1.43;0.70;;;12.90;99.90;;;;;;5034179;28;20203;-72
2021/05/22 10:35:47;;;;;;;1.00;0.90;;;12.90;99.90;;;;;;5031900;28;20555;-72
2021/05/22 10:38:37;;;;;;;3.67;1.27;;;12.70;99.90;;;;;;5033089;28;20773;-72
2021/05/22 10:41:07;;;;;;;1.43;0.80;;;12.90;99.90;;;;;;5040807;28;20207;-72
2021/05/22 10:43:40;;;;;;;1.70;0.83;;;12.50;99.90;;;;;;5038522;28;20668;-72
2021/05/22 10:46:06;;;;;;;3.60;1.10;;;12.30;99.90;;;;;;5033918;28;20664;-72
2021/05/22 10:48:59;;;;;;;5.53;1.37;;;11.90;99.90;;;;;;5034433;28;20252;-72
2021/05/22 10:51:32;;;;;;;5.17;1.30;;;12.00;99.90;;;;;;5032180;28;20679;-72
2021/05/22 10:53:59;;;;;;;1.53;0.90;;;12.10;99.90;;;;;;5036025;28;20695;-72
2021/05/22 10:56:26;;;;;;;2.20;1.13;;;12.20;99.90;;;;;;5033895;28;20208;-72
2021/05/22 10:59:13;;;;;;;3.23;1.07;;;12.20;99.90;;;;;;5020173;28;20255;-72
2021/05/22 11:01:43;;;;;;;2.90;1.20;;;12.40;99.90;;;;;;5032016;28;20203;-72
2021/05/22 11:04:31;;;;;;;1.63;0.90;;;12.30;99.90;;;;;;5028803;28;20226;-72
2021/05/22 11:07:00;;;;;;;1.70;0.80;;;12.40;99.90;;;;;;5033763;28;20220;-72
2021/05/22 11:09:48;;;;;;;1.10;1.00;;;12.50;99.90;;;;;;5034725;28;20284;-72
2021/05/22 11:12:49;;;;;;;3.07;1.20;;;12.60;99.90;;;;;;5038531;28;20211;-72
2021/05/22 11:15:39;;;;;;;0.93;0.87;;;12.70;99.90;;;;;;5028133;28;20207;-72
2021/05/22 11:18:07;;;;;;;1.37;0.90;;;12.90;99.90;;;;;;5031787;28;20622;-72
2021/05/22 11:20:35;;;;;;;2.77;1.10;;;12.80;99.90;;;;;;5030823;28;20203;-72
2021/05/22 11:23:03;;;;;;;1.20;0.83;;;13.20;99.90;;;;;;5036643;28;20720;-72
2021/05/22 11:25:47;;;;;;;2.63;1.40;;;13.30;99.90;;;;;;5037506;28;20738;-72
2021/05/22 11:28:19;;;;;;;3.90;0.93;;;13.30;99.90;;;;;;5032647;28;20203;-72
2021/05/22 11:30:51;;;;;;;3.03;1.20;;;13.40;99.90;;;;;;5029862;28;20500;-72
2021/05/22 11:33:29;;;;;;;1.87;1.10;;;13.20;99.90;;;;;;5033748;28;20214;-72
2021/05/22 11:35:57;;;;;;;1.83;0.93;;;13.30;99.90;;;;;;5037122;28;20273;-72
2021/05/22 11:38:35;;;;;;;3.17;0.97;;;13.20;99.90;;;;;;5035001;28;20282;-73
2021/05/22 11:41:12;;;;;;;3.07;1.30;;;13.30;99.90;;;;;;5033266;28;20203;-72
2021/05/22 11:43:48;;;;;;;2.83;0.80;;;13.00;99.90;;;;;;5034675;28;20709;-72
2021/05/22 11:46:17;;;;;;;1.17;0.90;;;13.00;99.90;;;;;;5011823;28;20219;-72
2021/05/22 11:48:44;;;;;;;5.87;1.47;;;13.30;99.90;;;;;;5038726;28;20207;-72
2021/05/22 11:51:15;;;;;;;1.67;0.90;;;13.40;99.90;;;;;;5035277;28;20657;-72
2021/05/22 11:53:44;;;;;;;4.37;1.10;;;13.30;99.90;;;;;;5039011;28;20215;-72
2021/05/22 11:56:13;;;;;;;1.87;0.97;;;13.10;99.90;;;;;;5036394;28;20200;-72
2021/05/22 11:58:41;;;;;;;2.00;0.73;;;13.10;99.90;;;;;;5036410;28;20216;-72
2021/05/22 12:01:11;;;;;;;1.77;1.10;;;13.20;99.90;;;;;;5027552;28;20209;-73
2021/05/22 12:03:38;;;;;;;3.17;0.87;;;13.20;99.90;;;;;;5016231;28;20636;-72
2021/05/22 12:06:05;;;;;;;1.03;0.57;;;13.20;99.90;;;;;;5030788;28;20248;-73
2021/05/22 12:08:33;;;;;;;1.77;1.03;;;13.40;99.90;;;;;;5034263;28;20204;-72
2021/05/22 12:11:10;;;;;;;1.50;0.47;;;13.40;99.90;;;;;;5029567;28;20304;-72
2021/05/22 12:13:51;;;;;;;1.70;0.50;;;13.20;99.90;;;;;;5033862;28;20207;-72
2021/05/22 12:16:18;;;;;;;0.60;0.60;;;13.20;99.90;;;;;;5026945;28;20212;-72
2021/05/22 12:18:44;;;;;;;2.40;0.60;;;13.20;99.90;;;;;;5037063;28;20213;-72
2021/05/22 12:21:11;;;;;;;2.03;0.80;;;13.10;99.90;;;;;;5038385;28;20214;-72
2021/05/22 12:23:38;;;;;;;1.00;0.90;;;13.20;99.90;;;;;;5034287;28;20210;-73
2021/05/22 12:26:08;;;;;;;0.83;0.37;;;13.10;99.90;;;;;;5034404;28;20219;-72
2021/05/22 12:28:34;;;;;;;0.43;0.20;;;13.10;99.90;;;;;;5033953;28;20199;-72
2021/05/22 12:31:01;;;;;;;0.87;0.47;;;13.10;99.90;;;;;;5039926;28;20214;-72
2021/05/22 12:33:29;;;;;;;2.97;0.47;;;13.10;99.90;;;;;;5033513;28;20203;-73
2021/05/22 12:36:03;;;;;;;0.63;0.50;;;13.30;99.90;;;;;;5033410;28;20286;-72
2021/05/22 12:38:38;;;;;;;0.70;0.30;;;13.40;99.90;;;;;;5031113;28;20221;-72
2021/05/22 12:41:05;;;;;;;1.03;0.43;;;13.30;99.90;;;;;;5026623;28;20207;-72
2021/05/22 12:43:41;;;;;;;2.87;0.70;;;13.30;99.90;;;;;;5040325;28;20210;-72
2021/05/22 12:46:22;;;;;;;2.17;0.40;;;13.40;99.90;;;;;;5040150;28;20227;-72
2021/05/22 12:48:49;;;;;;;1.53;0.40;;;13.20;99.90;;;;;;5037247;28;20218;-73
2021/05/22 12:51:20;;;;;;;0.73;0.20;;;13.30;99.90;;;;;;5037777;28;20204;-72
2021/05/22 12:53:47;;;;;;;1.07;0.30;;;13.30;99.90;;;;;;5040204;28;20202;-73